createdAt,value
2023-03-11T00:00:58.709Z,76.95
2023-03-11T00:01:58.739Z,78.80
2023-03-11T00:02:58.645Z,78.55
2023-03-11T00:03:58.677Z,79.38
2023-03-11T00:04:58.735Z,78.97
2023-03-11T00:05:58.671Z,79.07
2023-03-11T00:06:58.642Z,78.86
2023-03-11T00:07:58.673Z,78.41
2023-03-11T00:08:58.656Z,78.41
2023-03-11T00:09:58.650Z,78.72
2023-03-11T00:10:58.665Z,78.10
2023-03-11T00:11:58.663Z,77.09
2023-03-11T00:12:58.608Z,77.20
2023-03-11T00:13:58.633Z,77.30
2023-03-11T00:14:58.596Z,77.30
2023-03-11T00:15:58.637Z,77.20
2023-03-11T00:16:58.587Z,76.89
2023-03-11T00:17:58.580Z,77.13
2023-03-11T00:18:58.571Z,76.99
2023-03-11T00:19:58.588Z,77.20
2023-03-11T00:20:58.600Z,76.68
2023-03-11T00:21:58.601Z,77.06
2023-03-11T00:22:58.567Z,76.99
2023-03-11T00:23:58.571Z,77.06
2023-03-11T00:24:58.537Z,76.54
2023-03-11T00:25:58.531Z,76.95
2023-03-11T00:26:58.572Z,76.51
2023-03-11T00:27:58.519Z,76.72
2023-03-11T00:28:58.499Z,76.19
2023-03-11T00:29:58.524Z,76.19
2023-03-11T00:30:58.512Z,75.36
2023-03-11T00:31:58.508Z,75.67
2023-03-11T00:32:58.482Z,75.98
2023-03-11T00:33:58.518Z,75.78
2023-03-11T00:34:58.515Z,75.60
2023-03-11T00:35:58.505Z,76.12
2023-03-11T00:36:58.450Z,76.02
2023-03-11T00:37:58.493Z,76.54
2023-03-11T00:38:58.568Z,76.43
2023-03-11T00:39:58.445Z,76.64
2023-03-11T00:40:58.459Z,76.57
2023-03-11T00:41:58.449Z,76.89
2023-03-11T00:42:58.431Z,76.64
2023-03-11T00:43:58.463Z,76.78
2023-03-11T00:44:58.403Z,77.30
2023-03-11T00:45:58.428Z,77.27
2023-03-11T00:46:58.442Z,76.75
2023-03-11T00:47:58.428Z,76.47
2023-03-11T00:48:58.423Z,76.43
2023-03-11T00:49:58.389Z,76.33
2023-03-11T00:50:58.400Z,76.57
2023-03-11T00:51:58.363Z,78.07
2023-03-11T00:52:58.391Z,78.80
2023-03-11T00:53:58.371Z,78.38
2023-03-11T00:54:58.346Z,78.76
2023-03-11T00:55:58.342Z,78.59
2023-03-11T00:56:58.396Z,79.11
2023-03-11T00:57:58.324Z,78.86
2023-03-11T00:58:58.342Z,78.72
2023-03-11T00:59:58.324Z,78.83
2023-03-11T01:00:58.409Z,79.59
2023-03-11T01:01:58.351Z,79.03
2023-03-11T01:02:58.324Z,78.52
2023-03-11T01:03:58.297Z,78.62
2023-03-11T01:04:58.299Z,79.03
2023-03-11T01:05:58.307Z,79.45
2023-03-11T01:06:58.307Z,78.00
2023-03-11T01:07:58.269Z,77.16
2023-03-11T01:08:58.268Z,77.13
2023-03-11T01:09:58.292Z,77.55
2023-03-11T01:10:58.282Z,77.40
2023-03-11T01:11:58.274Z,76.82
2023-03-11T01:12:58.243Z,76.61
2023-03-11T01:13:58.238Z,76.61
2023-03-11T01:14:58.234Z,76.09
2023-03-11T01:15:58.308Z,75.81
2023-03-11T01:16:58.263Z,75.92
2023-03-11T01:17:58.221Z,76.33
2023-03-11T01:18:58.215Z,76.54
2023-03-11T01:19:58.207Z,76.75
2023-03-11T01:20:58.218Z,77.06
2023-03-11T01:21:58.192Z,76.75
2023-03-11T01:22:58.206Z,76.64
2023-03-11T01:23:58.217Z,76.54
2023-03-11T01:24:58.167Z,76.33
2023-03-11T01:25:58.160Z,76.33
2023-03-11T01:26:58.153Z,76.23
2023-03-11T01:27:58.160Z,76.54
2023-03-11T01:28:58.122Z,76.23
2023-03-11T01:29:58.157Z,75.60
2023-03-11T01:30:58.139Z,75.71
2023-03-11T01:31:58.163Z,76.26
2023-03-11T01:32:58.146Z,75.85
2023-03-11T01:33:58.119Z,76.26
2023-03-11T01:34:58.129Z,76.47
2023-03-11T01:35:58.151Z,76.30
2023-03-11T01:36:58.142Z,76.57
2023-03-11T01:37:58.111Z,76.82
2023-03-11T01:38:58.073Z,75.57
2023-03-11T01:39:58.102Z,76.40
2023-03-11T01:40:58.069Z,76.92
2023-03-11T01:41:58.062Z,76.82
2023-03-11T01:42:58.072Z,76.47
2023-03-11T01:43:58.031Z,74.29
2023-03-11T01:44:58.076Z,75.64
2023-03-11T01:45:58.142Z,75.85
2023-03-11T01:46:58.032Z,75.64
2023-03-11T01:47:58.563Z,75.40
2023-03-11T01:48:58.041Z,74.60
2023-03-11T01:49:58.007Z,75.43
2023-03-11T01:50:57.998Z,75.85
2023-03-11T01:51:58.998Z,74.39
2023-03-11T01:52:57.989Z,74.80
2023-03-11T01:53:58.005Z,73.90
2023-03-11T01:54:57.977Z,74.21
2023-03-11T01:55:57.958Z,73.59
2023-03-11T01:56:57.956Z,74.11
2023-03-11T01:57:57.997Z,73.38
2023-03-11T01:58:57.961Z,73.87
2023-03-11T01:59:57.944Z,73.28
2023-03-11T02:00:57.958Z,73.42
2023-03-11T02:01:57.936Z,73.94
2023-03-11T02:02:58.004Z,74.25
2023-03-11T02:03:57.944Z,74.46
2023-03-11T02:04:57.908Z,74.39
2023-03-11T02:05:57.916Z,73.66
2023-03-11T02:06:57.946Z,73.24
2023-03-11T02:07:57.903Z,72.72
2023-03-11T02:08:57.877Z,73.35
2023-03-11T02:09:57.875Z,73.35
2023-03-11T02:10:57.909Z,73.76
2023-03-11T02:11:57.908Z,73.35
2023-03-11T02:12:57.871Z,72.09
2023-03-11T02:13:57.868Z,72.51
2023-03-11T02:14:57.877Z,73.14
2023-03-11T02:15:57.922Z,72.83
2023-03-11T02:16:57.848Z,73.45
2023-03-11T02:17:57.887Z,73.32
2023-03-11T02:18:57.879Z,72.89
2023-03-11T02:19:57.810Z,71.86
2023-03-11T02:20:57.853Z,72.17
2023-03-11T02:21:57.841Z,72.79
2023-03-11T02:22:57.833Z,72.38
2023-03-11T02:23:57.829Z,73.32
2023-03-11T02:24:57.816Z,72.93
2023-03-11T02:25:57.790Z,74.15
2023-03-11T02:26:57.783Z,73.52
2023-03-11T02:27:57.833Z,73.97
2023-03-11T02:28:57.777Z,74.39
2023-03-11T02:29:57.786Z,74.49
2023-03-11T02:30:57.818Z,73.83
2023-03-11T02:31:57.778Z,72.93
2023-03-11T02:32:57.784Z,73.52
2023-03-11T02:33:57.811Z,74.15
2023-03-11T02:34:57.769Z,73.55
2023-03-11T02:35:57.778Z,73.86
2023-03-11T02:36:57.779Z,73.97
2023-03-11T02:37:57.784Z,74.29
2023-03-11T02:38:57.730Z,74.35
2023-03-11T02:39:57.741Z,73.32
2023-03-11T02:40:57.730Z,73.42
2023-03-11T02:41:57.765Z,74.15
2023-03-11T02:42:57.744Z,74.46
2023-03-11T02:43:57.748Z,74.46
2023-03-11T02:44:57.749Z,74.01
2023-03-11T02:45:57.712Z,73.21
2023-03-11T02:46:57.766Z,73.21
2023-03-11T02:47:57.684Z,72.86
2023-03-11T02:48:57.709Z,72.27
2023-03-11T02:49:57.706Z,71.96
2023-03-11T02:50:57.631Z,72.79
2023-03-11T02:51:57.712Z,72.89
2023-03-11T02:52:58.624Z,73.97
2023-03-11T02:53:57.647Z,73.52
2023-03-11T02:54:57.621Z,72.89
2023-03-11T02:55:57.607Z,73.03
2023-03-11T02:56:57.615Z,73.45
2023-03-11T02:57:57.615Z,72.93
2023-03-11T02:58:57.580Z,73.66
2023-03-11T02:59:57.586Z,73.69
2023-03-11T03:00:57.605Z,73.24
2023-03-11T03:01:57.589Z,73.55
2023-03-11T03:02:57.572Z,73.24
2023-03-11T03:03:57.618Z,73.55
2023-03-11T03:04:57.565Z,73.86
2023-03-11T03:05:57.569Z,73.45
2023-03-11T03:06:57.645Z,73.97
2023-03-11T03:07:57.561Z,74.07
2023-03-11T03:08:57.569Z,73.45
2023-03-11T03:09:57.541Z,73.00
2023-03-11T03:10:57.513Z,73.35
2023-03-11T03:11:57.536Z,73.24
2023-03-11T03:12:57.533Z,73.73
2023-03-11T03:13:57.554Z,72.89
2023-03-11T03:14:57.479Z,74.04
2023-03-11T03:15:57.538Z,72.17
2023-03-11T03:16:57.594Z,72.69
2023-03-11T03:17:57.474Z,72.38
2023-03-11T03:18:57.483Z,72.79
2023-03-11T03:19:57.501Z,72.79
2023-03-11T03:20:57.456Z,73.52
2023-03-11T03:21:57.452Z,73.59
2023-03-11T03:22:57.463Z,73.32
2023-03-11T03:23:57.459Z,73.38
2023-03-11T03:24:57.447Z,73.32
2023-03-11T03:25:57.427Z,72.55
2023-03-11T03:26:57.488Z,74.11
2023-03-11T03:27:57.391Z,73.90
2023-03-11T03:28:57.400Z,73.18
2023-03-11T03:29:57.449Z,72.20
2023-03-11T03:30:57.406Z,72.00
2023-03-11T03:31:57.477Z,71.69
2023-03-11T03:32:57.389Z,72.97
2023-03-11T03:33:57.396Z,72.97
2023-03-11T03:34:57.382Z,72.27
2023-03-11T03:35:57.387Z,72.27
2023-03-11T03:36:57.373Z,73.52
2023-03-11T03:37:57.352Z,73.52
2023-03-11T03:38:57.365Z,72.89
2023-03-11T03:39:57.373Z,72.79
2023-03-11T03:40:57.337Z,73.94
2023-03-11T03:41:57.433Z,73.94
2023-03-11T03:42:57.342Z,73.18
2023-03-11T03:43:57.332Z,71.96
2023-03-11T03:44:57.307Z,72.79
2023-03-11T03:45:57.382Z,72.89
2023-03-11T03:46:57.308Z,72.89
2023-03-11T03:47:57.293Z,72.79
2023-03-11T03:48:57.286Z,72.76
2023-03-11T03:49:57.286Z,72.76
2023-03-11T03:50:57.298Z,72.76
2023-03-11T03:51:57.257Z,72.13
2023-03-11T03:52:57.273Z,72.10
2023-03-11T03:53:57.294Z,72.03
2023-03-11T03:54:57.257Z,72.76
2023-03-11T03:55:58.070Z,72.86
2023-03-11T03:56:57.291Z,73.00
2023-03-11T03:57:57.280Z,73.28
2023-03-11T03:58:57.274Z,72.66
2023-03-11T03:59:57.238Z,73.28
2023-03-11T04:00:57.263Z,71.69
2023-03-11T04:01:57.270Z,71.69
2023-03-11T04:02:57.234Z,72.20
2023-03-11T04:03:57.212Z,72.52
2023-03-11T04:04:57.214Z,72.66
2023-03-11T04:05:57.209Z,72.97
2023-03-11T04:06:57.191Z,72.20
2023-03-11T04:07:57.161Z,73.28
2023-03-11T04:08:57.164Z,72.24
2023-03-11T04:09:57.214Z,72.13
2023-03-11T04:10:57.190Z,72.52
2023-03-11T04:11:57.137Z,72.31
2023-03-11T04:12:57.146Z,72.00
2023-03-11T04:13:57.143Z,72.62
2023-03-11T04:14:57.130Z,72.93
2023-03-11T04:15:57.145Z,72.52
2023-03-11T04:16:57.301Z,72.72
2023-03-11T04:17:57.117Z,72.10
2023-03-11T04:18:57.102Z,71.97
2023-03-11T04:19:57.088Z,71.89
2023-03-11T04:20:57.113Z,71.55
2023-03-11T04:21:57.094Z,72.07
2023-03-11T04:22:57.063Z,73.35
2023-03-11T04:23:57.060Z,73.35
2023-03-11T04:24:57.059Z,73.35
2023-03-11T04:25:57.070Z,73.35
2023-03-11T04:26:57.075Z,72.93
2023-03-11T04:27:57.096Z,73.63
2023-03-11T04:28:57.051Z,73.32
2023-03-11T04:29:57.023Z,73.00
2023-03-11T04:30:57.048Z,72.80
2023-03-11T04:31:57.036Z,72.69
2023-03-11T04:32:57.037Z,72.76
2023-03-11T04:33:56.993Z,72.59
2023-03-11T04:34:57.008Z,73.07
2023-03-11T04:35:57.018Z,72.90
2023-03-11T04:36:57.003Z,72.76
2023-03-11T04:37:56.986Z,73.60
2023-03-11T04:38:56.981Z,72.66
2023-03-11T04:39:56.966Z,73.39
2023-03-11T04:40:56.943Z,73.18
2023-03-11T04:41:56.972Z,73.49
2023-03-11T04:42:56.961Z,73.11
2023-03-11T04:43:56.963Z,74.15
2023-03-11T04:44:56.932Z,73.66
2023-03-11T04:45:56.993Z,74.95
2023-03-11T04:46:56.936Z,76.23
2023-03-11T04:47:56.920Z,77.37
2023-03-11T04:48:57.128Z,77.89
2023-03-11T04:49:56.914Z,78.63
2023-03-11T04:50:56.910Z,78.94
2023-03-11T04:51:56.885Z,78.83
2023-03-11T04:52:56.922Z,78.90
2023-03-11T04:53:56.929Z,79.25
2023-03-11T04:54:56.889Z,78.69
2023-03-11T04:55:56.860Z,79.11
2023-03-11T04:56:56.836Z,78.59
2023-03-11T04:57:56.833Z,78.69
2023-03-11T04:58:56.851Z,79.17
2023-03-11T04:59:56.847Z,78.97
2023-03-11T05:00:57.801Z,79.00
2023-03-11T05:01:56.798Z,80.15
2023-03-11T05:02:56.807Z,80.11
2023-03-11T05:03:56.786Z,80.43
2023-03-11T05:04:56.888Z,80.67
2023-03-11T05:05:56.828Z,80.88
2023-03-11T05:06:56.777Z,80.91
2023-03-11T05:07:56.800Z,81.65
2023-03-11T05:08:56.750Z,82.27
2023-03-11T05:09:56.780Z,82.37
2023-03-11T05:10:56.868Z,82.34
2023-03-11T05:11:56.734Z,81.96
2023-03-11T05:12:56.730Z,81.75
2023-03-11T05:13:56.741Z,81.85
2023-03-11T05:14:56.751Z,82.48
2023-03-11T05:15:56.756Z,83.10
2023-03-11T05:16:56.721Z,83.10
2023-03-11T05:17:56.783Z,82.89
2023-03-11T05:18:56.691Z,83.20
2023-03-11T05:19:56.682Z,83.27
2023-03-11T05:20:56.733Z,83.27
2023-03-11T05:21:56.818Z,83.27
2023-03-11T05:22:56.698Z,83.58
2023-03-11T05:23:56.656Z,83.06
2023-03-11T05:24:56.679Z,83.13
2023-03-11T05:25:56.684Z,82.65
2023-03-11T05:26:56.661Z,82.54
2023-03-11T05:27:56.697Z,83.83
2023-03-11T05:28:56.629Z,83.42
2023-03-11T05:29:56.661Z,84.04
2023-03-11T05:30:56.642Z,84.60
2023-03-11T05:31:56.626Z,85.89
2023-03-11T05:32:56.687Z,86.30
2023-03-11T05:33:56.624Z,85.78
2023-03-11T05:34:56.682Z,86.51
2023-03-11T05:35:56.691Z,86.45
2023-03-11T05:36:56.627Z,86.13
2023-03-11T05:37:56.623Z,86.66
2023-03-11T05:38:56.627Z,86.66
2023-03-11T05:39:56.632Z,86.24
2023-03-11T05:40:56.599Z,86.45
2023-03-11T05:41:56.605Z,86.20
2023-03-11T05:42:56.660Z,85.58
2023-03-11T05:43:56.599Z,85.16
2023-03-11T05:44:56.599Z,84.81
2023-03-11T05:45:56.547Z,84.64
2023-03-11T05:46:56.627Z,84.12
2023-03-11T05:47:56.619Z,84.43
2023-03-11T05:48:56.583Z,84.53
2023-03-11T05:49:56.563Z,84.22
2023-03-11T05:50:56.546Z,85.05
2023-03-11T05:51:58.624Z,84.26
2023-03-11T05:52:57.551Z,84.26
2023-03-11T05:53:56.507Z,84.72
2023-03-11T05:54:56.532Z,84.78
2023-03-11T05:55:56.525Z,85.03
2023-03-11T05:56:56.505Z,84.82
2023-03-11T05:57:56.526Z,84.57
2023-03-11T05:58:56.484Z,84.78
2023-03-11T05:59:56.499Z,84.64
2023-03-11T06:00:56.508Z,84.22
2023-03-11T06:01:56.448Z,83.28
2023-03-11T06:02:56.458Z,83.49
2023-03-11T06:03:56.535Z,83.39
2023-03-11T06:04:56.693Z,83.28
2023-03-11T06:05:56.478Z,83.04
2023-03-11T06:06:56.470Z,83.73
2023-03-11T06:07:56.406Z,83.31
2023-03-11T06:08:56.402Z,83.10
2023-03-11T06:09:56.393Z,83.73
2023-03-11T06:10:56.410Z,82.86
2023-03-11T06:11:56.403Z,82.65
2023-03-11T06:12:56.415Z,82.23
2023-03-11T06:13:56.418Z,82.23
2023-03-11T06:14:56.368Z,82.13
2023-03-11T06:15:56.428Z,82.34
2023-03-11T06:16:56.384Z,82.20
2023-03-11T06:17:56.381Z,81.71
2023-03-11T06:18:56.348Z,81.60
2023-03-11T06:19:56.340Z,79.63
2023-03-11T06:20:56.338Z,79.87
2023-03-11T06:21:56.330Z,81.75
2023-03-11T06:22:56.344Z,82.17
2023-03-11T06:23:56.344Z,82.89
2023-03-11T06:24:56.308Z,82.27
2023-03-11T06:25:56.332Z,82.68
2023-03-11T06:26:56.284Z,82.82
2023-03-11T06:27:56.333Z,83.00
2023-03-11T06:28:56.298Z,82.79
2023-03-11T06:29:56.262Z,81.89
2023-03-11T06:30:56.251Z,82.51
2023-03-11T06:31:56.307Z,82.89
2023-03-11T06:32:56.606Z,82.48
2023-03-11T06:33:56.253Z,80.71
2023-03-11T06:34:56.241Z,80.95
2023-03-11T06:35:56.308Z,80.60
2023-03-11T06:36:56.234Z,79.98
2023-03-11T06:37:56.254Z,79.21
2023-03-11T06:38:56.234Z,78.73
2023-03-11T06:39:56.245Z,78.69
2023-03-11T06:40:56.190Z,78.80
2023-03-11T06:41:56.233Z,79.52
2023-03-11T06:42:56.208Z,79.14
2023-03-11T06:43:56.188Z,79.83
2023-03-11T06:44:56.183Z,79.83
2023-03-11T06:45:56.204Z,79.91
2023-03-11T06:46:56.165Z,80.11
2023-03-11T06:47:56.213Z,78.86
2023-03-11T06:48:56.135Z,79.03
2023-03-11T06:49:56.137Z,78.62
2023-03-11T06:50:57.157Z,78.66
2023-03-11T06:51:56.141Z,78.72
2023-03-11T06:52:56.312Z,78.52
2023-03-11T06:53:56.101Z,78.00
2023-03-11T06:54:56.128Z,77.93
2023-03-11T06:55:56.119Z,78.34
2023-03-11T06:56:56.115Z,78.28
2023-03-11T06:57:56.134Z,78.63
2023-03-11T06:58:56.097Z,79.04
2023-03-11T06:59:56.094Z,78.87
2023-03-11T07:00:56.094Z,78.73
2023-03-11T07:01:56.133Z,79.39
2023-03-11T07:02:56.060Z,78.73
2023-03-11T07:03:56.131Z,79.08
2023-03-11T07:04:56.083Z,78.24
2023-03-11T07:05:56.046Z,78.91
2023-03-11T07:06:56.047Z,78.69
2023-03-11T07:07:56.036Z,79.22
2023-03-11T07:08:56.083Z,78.80
2023-03-11T07:09:56.072Z,78.45
2023-03-11T07:10:56.012Z,77.93
2023-03-11T07:11:56.041Z,77.55
2023-03-11T07:12:56.000Z,76.78
2023-03-11T07:13:56.061Z,75.60
2023-03-11T07:14:55.987Z,74.53
2023-03-11T07:15:55.963Z,74.39
2023-03-11T07:16:56.130Z,74.39
2023-03-11T07:17:55.963Z,73.53
2023-03-11T07:18:55.966Z,71.97
2023-03-11T07:19:55.973Z,71.76
2023-03-11T07:20:55.964Z,72.04
2023-03-11T07:21:55.954Z,71.70
2023-03-11T07:22:55.937Z,70.94
2023-03-11T07:23:55.938Z,69.14
2023-03-11T07:24:55.949Z,68.18
2023-03-11T07:25:55.928Z,68.07
2023-03-11T07:26:56.020Z,68.65
2023-03-11T07:27:55.921Z,69.38
2023-03-11T07:28:55.943Z,69.52
2023-03-11T07:29:55.884Z,69.52
2023-03-11T07:30:55.887Z,69.34
2023-03-11T07:31:55.949Z,69.55
2023-03-11T07:32:55.982Z,69.61
2023-03-11T07:33:55.885Z,69.74
2023-03-11T07:34:55.926Z,68.32
2023-03-11T07:35:55.920Z,68.53
2023-03-11T07:36:55.890Z,68.98
2023-03-11T07:37:55.813Z,70.15
2023-03-11T07:38:55.886Z,71.12
2023-03-11T07:39:55.913Z,71.44
2023-03-11T07:40:55.816Z,71.23
2023-03-11T07:41:55.806Z,71.23
2023-03-11T07:42:55.808Z,71.20
2023-03-11T07:43:55.805Z,70.26
2023-03-11T07:44:55.771Z,71.96
2023-03-11T07:45:55.808Z,70.57
2023-03-11T07:46:55.808Z,70.15
2023-03-11T07:47:55.785Z,69.84
2023-03-11T07:48:55.737Z,70.26
2023-03-11T07:49:57.377Z,70.12
2023-03-11T07:50:56.766Z,69.09
2023-03-11T07:51:55.727Z,67.00
2023-03-11T07:52:55.782Z,67.03
2023-03-11T07:53:55.722Z,65.89
2023-03-11T07:54:55.713Z,66.72
2023-03-11T07:55:55.716Z,65.99
2023-03-11T07:56:55.741Z,67.48
2023-03-11T07:57:55.697Z,67.07
2023-03-11T07:58:55.816Z,66.90
2023-03-11T07:59:55.700Z,67.39
2023-03-11T08:00:55.696Z,66.14
2023-03-11T08:01:55.737Z,65.65
2023-03-11T08:02:55.678Z,65.89
2023-03-11T08:03:55.676Z,65.19
2023-03-11T08:04:55.638Z,66.13
2023-03-11T08:05:55.662Z,65.92
2023-03-11T08:06:55.677Z,67.17
2023-03-11T08:07:55.872Z,67.14
2023-03-11T08:08:55.675Z,67.73
2023-03-11T08:09:55.762Z,64.79
2023-03-11T08:10:55.614Z,64.65
2023-03-11T08:11:55.594Z,64.65
2023-03-11T08:12:55.605Z,63.59
2023-03-11T08:13:55.602Z,63.24
2023-03-11T08:14:55.598Z,60.36
2023-03-11T08:15:55.629Z,60.78
2023-03-11T08:16:55.559Z,60.68
2023-03-11T08:17:55.599Z,61.51
2023-03-11T08:18:55.653Z,61.27
2023-03-11T08:19:55.559Z,60.52
2023-03-11T08:20:55.577Z,59.97
2023-03-11T08:21:55.561Z,58.62
2023-03-11T08:22:58.285Z,59.04
2023-03-11T08:23:56.542Z,58.03
2023-03-11T08:24:55.530Z,57.79
2023-03-11T08:25:55.519Z,58.83
2023-03-11T08:26:55.534Z,60.39
2023-03-11T08:27:55.543Z,60.77
2023-03-11T08:28:55.521Z,59.22
2023-03-11T08:29:55.480Z,57.87
2023-03-11T08:30:55.512Z,58.00
2023-03-11T08:31:55.491Z,60.25
2023-03-11T08:32:55.491Z,60.10
2023-03-11T08:33:55.434Z,59.37
2023-03-11T08:34:55.465Z,57.48
2023-03-11T08:35:55.509Z,57.20
2023-03-11T08:36:55.451Z,56.47
2023-03-11T08:37:55.454Z,56.16
2023-03-11T08:38:55.480Z,57.76
2023-03-11T08:39:55.436Z,57.90
2023-03-11T08:40:55.423Z,57.07
2023-03-11T08:41:55.420Z,58.07
2023-03-11T08:42:55.388Z,56.52
2023-03-11T08:43:55.414Z,57.56
2023-03-11T08:44:55.431Z,57.90
2023-03-11T08:45:55.365Z,58.07
2023-03-11T08:46:55.355Z,58.78
2023-03-11T08:47:55.355Z,58.67
2023-03-11T08:48:55.374Z,60.17
2023-03-11T08:49:55.426Z,60.25
2023-03-11T08:50:55.352Z,56.39
2023-03-11T08:51:55.388Z,56.18
2023-03-11T08:52:55.355Z,56.93
2023-03-11T08:53:55.321Z,57.06
2023-03-11T08:54:55.321Z,59.03
2023-03-11T08:55:55.306Z,58.69
2023-03-11T08:56:55.333Z,58.15
2023-03-11T08:57:55.292Z,57.97
2023-03-11T08:58:55.317Z,56.65
2023-03-11T08:59:55.271Z,57.56
2023-03-11T09:00:55.351Z,56.93
2023-03-11T09:01:55.308Z,56.96
2023-03-11T09:02:55.316Z,58.20
2023-03-11T09:03:55.261Z,55.33
2023-03-11T09:04:55.243Z,54.50
2023-03-11T09:05:55.325Z,55.12
2023-03-11T09:06:55.273Z,55.85
2023-03-11T09:07:55.246Z,55.18
2023-03-11T09:08:55.251Z,54.43
2023-03-11T09:09:55.230Z,54.63
2023-03-11T09:10:55.276Z,54.71
2023-03-11T09:11:55.228Z,52.98
2023-03-11T09:12:55.245Z,53.70
2023-03-11T09:13:55.247Z,54.84
2023-03-11T09:14:55.217Z,54.71
2023-03-11T09:15:55.236Z,54.58
2023-03-11T09:16:55.172Z,52.91
2023-03-11T09:17:55.243Z,54.27
2023-03-11T09:18:55.175Z,54.79
2023-03-11T09:19:55.160Z,52.93
2023-03-11T09:20:55.209Z,53.36
2023-03-11T09:21:55.162Z,54.91
2023-03-11T09:22:55.173Z,52.64
2023-03-11T09:23:55.150Z,51.84
2023-03-11T09:24:55.139Z,52.80
2023-03-11T09:25:55.167Z,52.40
2023-03-11T09:26:55.137Z,52.80
2023-03-11T09:27:55.112Z,54.79
2023-03-11T09:28:55.104Z,55.93
2023-03-11T09:29:55.161Z,56.62
2023-03-11T09:30:55.115Z,57.76
2023-03-11T09:31:55.191Z,56.03
2023-03-11T09:32:55.201Z,53.23
2023-03-11T09:33:55.071Z,53.15
2023-03-11T09:34:55.104Z,55.33
2023-03-11T09:35:55.122Z,54.50
2023-03-11T09:36:55.104Z,52.74
2023-03-11T09:37:55.074Z,52.84
2023-03-11T09:38:55.090Z,53.67
2023-03-11T09:39:55.068Z,52.09
2023-03-11T09:40:55.132Z,53.41
2023-03-11T09:41:58.478Z,52.80
2023-03-11T09:42:56.113Z,53.18
2023-03-11T09:43:55.017Z,52.98
2023-03-11T09:44:55.137Z,52.46
2023-03-11T09:45:55.045Z,52.46
2023-03-11T09:46:55.064Z,52.17
2023-03-11T09:47:54.998Z,52.72
2023-03-11T09:48:55.017Z,52.92
2023-03-11T09:49:54.986Z,52.87
2023-03-11T09:50:56.099Z,51.28
2023-03-11T09:51:55.015Z,51.33
2023-03-11T09:52:54.980Z,51.70
2023-03-11T09:53:54.984Z,52.00
2023-03-11T09:54:54.970Z,50.35
2023-03-11T09:55:54.971Z,50.25
2023-03-11T09:56:54.970Z,49.94
2023-03-11T09:57:54.935Z,49.71
2023-03-11T09:58:54.933Z,49.04
2023-03-11T09:59:54.997Z,49.65
2023-03-11T10:00:54.948Z,49.26
2023-03-11T10:01:54.948Z,49.63
2023-03-11T10:02:55.069Z,51.18
2023-03-11T10:03:54.898Z,50.66
2023-03-11T10:04:55.902Z,51.36
2023-03-11T10:05:54.885Z,48.99
2023-03-11T10:06:54.926Z,52.26
2023-03-11T10:07:54.882Z,51.52
2023-03-11T10:08:54.916Z,49.19
2023-03-11T10:09:54.905Z,49.40
2023-03-11T10:10:54.917Z,48.80
2023-03-11T10:11:54.858Z,51.79
2023-03-11T10:12:54.859Z,50.81
2023-03-11T10:13:54.904Z,50.11
2023-03-11T10:14:55.049Z,50.60
2023-03-11T10:15:54.929Z,50.72
2023-03-11T10:16:54.907Z,52.40
2023-03-11T10:17:54.965Z,53.41
2023-03-11T10:18:54.875Z,54.86
2023-03-11T10:19:54.933Z,52.87
2023-03-11T10:20:54.908Z,52.38
2023-03-11T10:21:54.846Z,51.26
2023-03-11T10:22:54.832Z,52.33
2023-03-11T10:23:54.803Z,52.40
2023-03-11T10:24:54.813Z,52.38
2023-03-11T10:25:54.793Z,53.39
2023-03-11T10:26:54.872Z,52.98
2023-03-11T10:27:54.809Z,51.37
2023-03-11T10:28:54.772Z,50.63
2023-03-11T10:29:54.758Z,51.20
2023-03-11T10:30:54.786Z,52.00
2023-03-11T10:31:54.816Z,46.20
2023-03-11T10:32:54.799Z,47.75
2023-03-11T10:33:54.733Z,48.37
2023-03-11T10:34:54.790Z,47.60
2023-03-11T10:35:54.835Z,47.87
2023-03-11T10:36:54.773Z,47.56
2023-03-11T10:37:54.767Z,49.00
2023-03-11T10:38:54.741Z,51.18
2023-03-11T10:39:54.736Z,49.15
2023-03-11T10:40:54.708Z,49.69
2023-03-11T10:41:54.727Z,49.96
2023-03-11T10:42:54.710Z,50.50
2023-03-11T10:43:54.695Z,51.76
2023-03-11T10:44:54.690Z,51.15
2023-03-11T10:45:54.728Z,51.28
2023-03-11T10:46:54.695Z,49.56
2023-03-11T10:47:54.704Z,50.18
2023-03-11T10:48:54.777Z,50.82
2023-03-11T10:49:54.683Z,50.43
2023-03-11T10:50:54.677Z,51.39
2023-03-11T10:51:54.666Z,51.78
2023-03-11T10:52:54.682Z,50.43
2023-03-11T10:53:54.687Z,52.80
2023-03-11T10:54:54.651Z,52.09
2023-03-11T10:55:54.656Z,52.48
2023-03-11T10:56:54.713Z,51.37
2023-03-11T10:57:54.619Z,51.03
2023-03-11T10:58:54.630Z,50.41
2023-03-11T10:59:54.648Z,52.17
2023-03-11T11:00:54.675Z,52.77
2023-03-11T11:01:54.609Z,50.21
2023-03-11T11:02:54.616Z,50.64
2023-03-11T11:03:54.625Z,53.00
2023-03-11T11:04:55.626Z,52.69
2023-03-11T11:05:54.596Z,52.67
2023-03-11T11:06:54.582Z,53.70
2023-03-11T11:07:54.605Z,51.21
2023-03-11T11:08:54.614Z,50.72
2023-03-11T11:09:54.590Z,49.91
2023-03-11T11:10:54.585Z,49.30
2023-03-11T11:11:54.604Z,48.90
2023-03-11T11:12:54.595Z,51.08
2023-03-11T11:13:54.608Z,50.56
2023-03-11T11:14:54.540Z,48.36
2023-03-11T11:15:54.558Z,50.31
2023-03-11T11:16:54.610Z,50.68
2023-03-11T11:17:54.618Z,49.26
2023-03-11T11:18:54.523Z,50.38
2023-03-11T11:19:54.511Z,48.33
2023-03-11T11:20:54.541Z,52.28
2023-03-11T11:21:54.516Z,48.17
2023-03-11T11:22:54.513Z,47.86
2023-03-11T11:23:54.503Z,49.52
2023-03-11T11:24:54.541Z,47.92
2023-03-11T11:25:54.505Z,50.21
2023-03-11T11:26:54.515Z,50.31
2023-03-11T11:27:54.489Z,49.27
2023-03-11T11:28:54.512Z,49.48
2023-03-11T11:29:54.501Z,49.79
2023-03-11T11:30:54.562Z,50.31
2023-03-11T11:31:54.499Z,51.55
2023-03-11T11:32:54.591Z,51.94
2023-03-11T11:33:54.466Z,51.73
2023-03-11T11:34:54.453Z,50.39
2023-03-11T11:35:54.503Z,51.32
2023-03-11T11:36:54.485Z,50.90
2023-03-11T11:37:54.485Z,51.34
2023-03-11T11:38:54.423Z,52.80
2023-03-11T11:39:54.447Z,53.62
2023-03-11T11:40:54.409Z,54.94
2023-03-11T11:41:54.420Z,52.48
2023-03-11T11:42:54.392Z,53.28
2023-03-11T11:43:54.434Z,51.34
2023-03-11T11:44:54.500Z,50.90
2023-03-11T11:45:54.440Z,49.72
2023-03-11T11:46:54.394Z,49.39
2023-03-11T11:47:54.418Z,48.83
2023-03-11T11:48:54.375Z,49.30
2023-03-11T11:49:54.400Z,48.45
2023-03-11T11:50:54.402Z,47.67
2023-03-11T11:51:54.352Z,49.61
2023-03-11T11:52:54.346Z,48.88
2023-03-11T11:53:54.341Z,47.96
2023-03-11T11:54:54.341Z,46.72
2023-03-11T11:55:55.352Z,46.10
2023-03-11T11:56:54.336Z,45.89
2023-03-11T11:57:54.333Z,48.68
2023-03-11T11:58:54.335Z,47.31
2023-03-11T11:59:55.918Z,46.20
2023-03-11T12:00:54.333Z,48.68
2023-03-11T12:01:54.330Z,48.35
2023-03-11T12:02:54.308Z,47.73
2023-03-11T12:03:54.327Z,45.56
2023-03-11T12:04:54.299Z,45.62
2023-03-11T12:05:56.770Z,44.47
2023-03-11T12:06:54.277Z,42.08
2023-03-11T12:07:54.274Z,44.24
2023-03-11T12:08:54.306Z,44.39
2023-03-11T12:09:54.277Z,45.05
2023-03-11T12:10:54.270Z,48.84
2023-03-11T12:11:54.281Z,47.38
2023-03-11T12:12:54.242Z,46.16
2023-03-11T12:13:55.259Z,45.03
2023-03-11T12:14:54.246Z,46.39
2023-03-11T12:15:54.300Z,46.77
2023-03-11T12:16:54.282Z,48.65
2023-03-11T12:17:54.246Z,50.45
2023-03-11T12:18:54.223Z,51.09
2023-03-11T12:19:54.223Z,49.98
2023-03-11T12:20:54.227Z,49.87
2023-03-11T12:21:54.218Z,49.33
2023-03-11T12:22:54.228Z,48.94
2023-03-11T12:23:55.088Z,50.60
2023-03-11T12:24:55.201Z,51.42
2023-03-11T12:25:54.189Z,51.01
2023-03-11T12:26:54.194Z,50.21
2023-03-11T12:27:54.212Z,51.53
2023-03-11T12:28:54.164Z,50.49
2023-03-11T12:29:54.174Z,49.58
2023-03-11T12:30:54.193Z,49.40
2023-03-11T12:31:54.172Z,50.93
2023-03-11T12:32:54.326Z,50.39
2023-03-11T12:33:54.136Z,50.18
2023-03-11T12:34:54.130Z,49.35
2023-03-11T12:35:54.231Z,52.44
2023-03-11T12:36:54.151Z,49.85
2023-03-11T12:37:54.248Z,50.16
2023-03-11T12:38:54.169Z,48.92
2023-03-11T12:39:54.131Z,47.80
2023-03-11T12:40:54.127Z,49.56
2023-03-11T12:41:54.116Z,49.95
2023-03-11T12:42:54.142Z,49.82
2023-03-11T12:43:54.138Z,47.84
2023-03-11T12:44:54.156Z,48.85
2023-03-11T12:45:54.094Z,48.31
2023-03-11T12:46:54.186Z,48.93
2023-03-11T12:47:54.104Z,50.27
2023-03-11T12:48:54.116Z,52.15
2023-03-11T12:49:54.084Z,49.68
2023-03-11T12:50:54.070Z,48.05
2023-03-11T12:51:54.076Z,47.42
2023-03-11T12:52:54.065Z,50.34